Latest Weather Observations for Melbourne Airport

IDV60801

Issued at 4:03 pm EDT Saturday 25 November 2017 (issued every 30 minutes, with the page automatically refreshed every 10 minutes)

About weather observations | Map of weather stations | Latest weather observations for VIC | Other Formats
Station Details ID: 086282 Name: MELBOURNE AIRPORT Lat: -37.67 Lon: 144.83 Height: 113.4 m
Data from the previous 72 hours. | See also: Recent months at Melbourne Airport
Date/Time
EDT
Temp
°C
App
Temp
°C
Dew
Point
°C
Rel
Hum
%
Delta-T
°C
Wind Press
QNH
hPa
Press
MSL
hPa
Rain since
9am
mm
Dir  Spd
km/h
Gust
km/h
Spd
kts
Gust
kts
25/03:30pm 31.3 27.0 8.0 23 12.9 NNW 20 39 11 21 1011.0 1010.8 0.0
25/03:00pm 31.9 26.5 7.9 22 13.3 N 26 39 14 21 1011.4 1011.2 0.0
25/02:30pm 31.8 27.0 8.9 24 12.9 N 24 41 13 22 1011.7 1011.5 0.0
25/02:00pm 31.7 27.6 10.1 26 12.4 NNW 22 32 12 17 1012.1 1011.9 0.0
25/01:30pm 30.2 25.7 10.0 28 11.5 N 24 33 13 18 1012.5 1012.3 0.0
25/01:00pm 28.8 23.5 11.1 33 10.2 N 30 39 16 21 1012.8 1012.6 0.0
25/12:30pm 29.3 24.3 10.8 31 10.6 N 28 35 15 19 1013.0 1012.8 0.0
25/12:00pm 28.9 23.5 11.0 33 10.3 N 30 37 16 20 1013.2 1013.0 0.0
25/11:30am 28.4 24.3 11.4 34 9.8 N 24 32 13 17 1013.3 1013.1 0.0
25/11:00am 27.3 22.9 11.7 37 9.0 N 26 33 14 18 1013.7 1013.5 0.0
25/10:30am 26.9 23.5 11.3 37 8.9 N 20 32 11 17 1013.9 1013.7 0.0
25/10:00am 26.2 23.3 12.9 43 7.8 NNE 20 33 11 18 1014.1 1013.9 0.0
25/09:30am 23.6 23.0 15.7 61 4.8 NE 13 22 7 12 1014.5 1014.3 0.0
25/09:00am 22.6 21.1 15.3 63 4.4 ENE 17 20 9 11 1014.6 1014.4 1.8
25/08:30am 21.7 22.6 16.6 73 3.1 N 7 11 4 6 1014.9 1014.7 1.8
25/08:00am 20.5 20.8 17.1 81 2.1 N 11 15 6 8 1014.9 1014.7 1.8
25/07:30am 18.7 19.0 16.9 89 1.1 N 11 13 6 7 1015.0 1014.8 1.8
25/07:00am 17.9 18.1 16.7 93 0.7 N 11 13 6 7 1015.0 1014.8 1.8
25/06:30am 17.6 18.4 16.3 92 0.8 ENE 7 11 4 6 1014.7 1014.5 1.8
25/06:00am 18.2 19.1 16.7 91 0.9 SE 7 11 4 6 1014.5 1014.3 1.8
25/05:30am 17.9 18.9 16.4 91 0.9 WNW 6 9 3 5 1014.4 1014.2 1.8
25/05:00am 17.9 18.7 16.4 91 0.9 WSW 7 9 4 5 1014.2 1014.0 1.8
25/04:30am 18.3 18.7 16.3 88 1.2 WSW 9 9 5 5 1014.0 1013.8 1.8
25/04:00am 18.4 18.2 15.7 84 1.6 SW 11 15 6 8 1013.8 1013.6 1.8
25/03:30am 18.7 18.5 14.8 78 2.3 SW 9 9 5 5 1013.4 1013.2 1.8
25/03:00am 19.5 18.2 13.6 68 3.4 NNW 13 17 7 9 1012.9 1012.7 1.8
25/02:30am 19.4 17.1 14.2 72 3.0 N 19 20 10 11 1012.9 1012.7 1.8
25/02:00am 18.5 17.9 15.6 83 1.7 NNE 13 15 7 8 1013.0 1012.8 1.8
25/01:30am 19.7 20.0 14.9 74 2.8 ENE 7 13 4 7 1013.5 1013.3 1.8
25/01:00am 19.3 19.9 15.8 80 2.1 ENE 7 11 4 6 1013.6 1013.4 1.8
25/12:30am 19.1 19.0 16.1 83 1.8 W 11 17 6 9 1014.0 1013.8 1.8
25/12:00am 20.0 20.3 15.1 73 2.9 NE 7 11 4 6 1013.9 1013.7 1.6
 
Date/Time
EDT
Temp
°C
App
Temp
°C
Dew
Point
°C
Rel
Hum
%
Delta-T
°C
Wind Press
QNH
hPa
Press
MSL
hPa
Rain since
9am
mm
Dir  Spd
km/h
Gust
km/h
Spd
kts
Gust
kts
24/11:30pm 19.3 21.2 15.8 80 2.1 CALM 0 7 0 4 1014.2 1014.0 1.6
24/11:00pm 20.0 19.4 14.5 70 3.2 NNW 11 15 6 8 1014.3 1014.1 1.6
24/10:30pm 19.8 18.7 15.4 76 2.6 NNE 15 24 8 13 1014.4 1014.2 1.6
24/10:00pm 20.7 20.9 15.7 73 3.0 NNE 9 17 5 9 1014.3 1014.1 1.6
24/09:30pm 21.0 20.8 15.7 71 3.2 NNE 11 17 6 9 1014.1 1013.9 1.6
24/09:00pm 21.8 19.9 15.1 65 4.0 N 19 30 10 16 1013.2 1013.0 1.6
24/08:47pm 21.5 20.6 15.9 70 3.4 ENE 15 24 8 13 1013.3 1013.1 1.6
24/08:30pm 23.8 19.4 12.9 50 6.3 ESE 28 33 15 18 1012.2 1012.0 1.6
24/08:26pm 23.1 19.1 14.1 57 5.3 ESE 28 33 15 18 1012.1 1011.9 1.6
24/08:00pm 22.0 20.9 14.2 61 4.6 ESE 13 19 7 10 1013.5 1013.3 1.6
24/07:30pm 23.4 18.5 12.4 50 6.3 N 30 39 16 21 1014.1 1013.9 0.2
24/07:19pm 24.8 20.4 10.5 40 8.0 NNW 24 41 13 22 1014.1 1013.9 0.2
24/07:00pm 26.2 23.6 10.8 38 8.7 S 15 19 8 10 1012.5 1012.3 0.2
24/06:30pm 26.6 22.9 11.6 39 8.6 S 22 32 12 17 1012.0 1011.8 0.2
24/06:00pm 27.8 23.6 11.0 35 9.6 S 24 32 13 17 1011.5 1011.3 0.2
24/05:30pm 29.3 25.0 10.8 31 10.6 S 24 28 13 15 1011.7 1011.5 0.2
24/05:00pm 28.6 24.7 10.8 33 10.2 SSE 22 28 12 15 1011.5 1011.3 0.2
24/04:30pm 30.0 26.1 10.9 30 11.0 S 22 32 12 17 1011.5 1011.3 0.2
24/04:00pm 30.8 29.6 10.4 28 11.7 SW 7 15 4 8 1011.7 1011.5 0.2
24/03:30pm 31.2 30.4 11.8 30 11.4 SSE 7 13 4 7 1012.1 1011.9 0.2
24/03:00pm 30.0 27.5 9.6 28 11.5 E 13 20 7 11 1012.4 1012.2 0.0
24/02:30pm 29.7 29.9 18.6 51 7.2 NNE 15 26 8 14 1012.8 1012.6 0.0
24/02:00pm 29.5 25.9 10.6 31 10.8 NNE 20 32 11 17 1013.2 1013.0 0.0
24/01:30pm 29.3 25.6 10.1 30 10.9 NNE 20 30 11 16 1013.5 1013.3 0.0
24/01:00pm 27.6 23.7 9.4 32 10.1 NNE 20 32 11 17 1013.9 1013.7 0.0
24/12:30pm 28.1 30.2 25.3 85 2.0 N 24 33 13 18 1014.0 1013.8 0.0
24/12:00pm 27.6 26.9 20.3 64 4.8 N 24 32 13 17 1014.1 1013.9 0.0
24/11:30am 25.7 26.0 17.0 58 5.4 NNW 11 22 6 12 1014.4 1014.2 0.0
24/11:00am 24.1 21.2 18.9 72 3.3 N 32 39 17 21 1014.1 1013.9 0.0
24/10:30am 23.9 19.4 18.2 70 3.6 N 39 48 21 26 1013.7 1013.5 0.0
24/10:00am 24.0 19.5 17.3 66 4.2 N 37 48 20 26 1013.5 1013.3 0.0
24/09:30am 23.6 17.7 15.7 61 4.8 N 41 52 22 28 1013.1 1012.9 0.0
24/09:00am 23.9 18.6 14.1 54 5.8 N 35 48 19 26 1013.2 1013.0 0.0
24/08:30am 23.5 16.7 10.8 44 7.1 N 37 48 20 26 1012.8 1012.6 -
24/08:00am 22.9 18.0 9.9 43 7.1 NNE 26 35 14 19 1012.7 1012.5 -
24/07:30am 22.1 17.5 9.8 45 6.7 N 24 37 13 20 1012.6 1012.4 -
24/07:00am 21.8 16.7 9.1 44 6.8 NNE 26 35 14 19 1012.2 1012.0 -
24/06:30am 19.5 17.0 11.1 58 4.6 NNE 15 20 8 11 1012.4 1012.2 -
24/06:00am 17.1 15.3 12.0 72 2.8 N 13 15 7 8 1012.2 1012.0 -
24/05:30am 16.6 15.6 12.3 76 2.4 N 9 11 5 6 1012.0 1011.8 -
24/05:00am 16.4 15.3 12.0 75 2.4 WNW 9 13 5 7 1011.8 1011.6 -
24/04:30am 17.8 17.2 12.4 70 3.0 N 7 9 4 5 1011.6 1011.4 -
24/04:00am 17.5 16.7 12.9 74 2.6 N 9 11 5 6 1011.5 1011.3 -
24/03:30am 18.4 19.3 12.9 70 3.1 CALM 0 7 0 4 1011.5 1011.3 -
24/03:00am 18.9 18.6 13.3 70 3.2 WSW 7 13 4 7 1011.4 1011.2 0.0
24/02:30am 20.2 18.2 12.6 61 4.3 N 15 17 8 9 1011.3 1011.1 -
24/02:00am 20.8 19.1 13.7 64 4.1 N 15 19 8 10 1011.3 1011.1 -
24/01:30am 20.8 19.8 14.5 67 3.7 N 13 17 7 9 1011.1 1010.9 -
24/01:00am 20.8 20.5 14.3 66 3.8 N 9 13 5 7 1011.9 1011.7 -
24/12:30am 20.5 19.5 14.7 69 3.4 W 13 19 7 10 1012.3 1012.1 -
24/12:00am 21.3 21.5 14.3 64 4.1 W 6 9 3 5 1012.0 1011.8 -
 
Date/Time
EDT
Temp
°C
App
Temp
°C
Dew
Point
°C
Rel
Hum
%
Delta-T
°C
Wind Press
QNH
hPa
Press
MSL
hPa
Rain since
9am
mm
Dir  Spd
km/h
Gust
km/h
Spd
kts
Gust
kts
23/11:30pm 20.7 20.9 14.8 69 3.5 W 7 19 4 10 1012.4 1012.2 -
23/11:00pm 22.0 22.1 14.0 60 4.7 N 6 9 3 5 1011.6 1011.4 -
23/10:30pm 21.9 22.8 14.1 61 4.6 SW 2 7 1 4 1011.4 1011.2 -
23/10:00pm 22.8 22.3 12.7 53 5.8 W 7 11 4 6 1011.0 1010.8 -
23/09:30pm 23.0 21.5 10.6 45 6.9 WNW 9 15 5 8 1010.6 1010.4 -
23/09:00pm 25.0 21.2 7.5 32 9.3 N 17 20 9 11 1010.2 1010.0 0.0
23/08:30pm 25.9 23.8 8.1 32 9.6 SE 9 17 5 9 1009.6 1009.4 -
23/08:00pm 25.3 22.6 8.8 35 9.0 SSE 13 24 7 13 1009.4 1009.2 -
23/07:30pm 26.4 21.1 7.0 29 10.3 SSW 24 52 13 28 1009.5 1009.3 -
23/07:16pm 24.4 18.6 9.4 38 8.2 WSW 30 48 16 26 1009.6 1009.4 -
23/07:00pm 22.8 17.0 11.6 49 6.3 WSW 33 41 18 22 1009.8 1009.6 -
23/06:54pm 22.5 16.4 11.9 51 6.0 WSW 35 50 19 27 1009.6 1009.4 -
23/06:35pm 25.1 18.9 9.5 37 8.6 NW 32 61 17 33 1008.9 1008.8 -
23/06:30pm 26.5 22.9 8.3 31 9.9 NNW 17 48 9 26 1008.8 1008.7 -
23/06:00pm 29.9 26.6 4.8 20 13.1 E 11 19 6 10 1007.9 1007.7 -
23/05:30pm 31.3 27.4 3.6 17 14.3 SE 13 22 7 12 1008.2 1008.1 -
23/05:00pm 29.5 25.7 6.0 22 12.5 SSW 15 19 8 10 1008.7 1008.6 -
23/04:30pm 29.0 25.2 5.6 22 12.3 S 15 26 8 14 1009.1 1009.0 -
23/04:00pm 28.7 25.3 7.5 26 11.5 S 15 22 8 12 1009.4 1009.2 -
23/03:30pm 28.7 23.2 6.0 23 12.0 S 24 35 13 19 1009.7 1009.5 0.0
23/03:00pm 30.0 25.9 11.5 32 10.8 W 24 35 13 19 1009.7 1009.5 0.0
23/02:34pm 32.8 26.2 4.3 16 15.0 NNW 28 48 15 26 1009.5 1009.3 -
23/02:30pm 32.0 25.9 5.0 18 14.3 NNW 26 44 14 24 1009.4 1009.2 0.0
23/02:00pm 33.1 26.1 4.2 16 15.2 N 30 37 16 20 1009.7 1009.5 0.0
23/01:30pm 32.9 25.7 4.8 17 14.9 NNW 32 52 17 28 1010.0 1009.8 -
23/01:26pm 33.5 26.6 4.7 16 15.3 NNW 30 52 16 28 1009.9 1009.7 -
23/01:03pm 31.8 25.3 4.6 18 14.3 NW 28 46 15 25 1010.3 1010.1 0.0
23/01:00pm 31.3 25.0 3.5 17 14.3 NW 26 46 14 25 1010.3 1010.1 0.0
23/12:30pm 32.8 26.0 5.0 17 14.8 NNW 30 41 16 22 1010.6 1010.4 -
23/12:07pm 31.7 24.5 6.0 20 13.8 N 33 52 18 28 1010.8 1010.6 0.0
23/12:00pm 32.0 25.3 7.2 21 13.6 N 32 37 17 20 1010.9 1010.7 0.0
23/11:30am 31.0 26.1 7.0 22 13.0 N 22 28 12 15 1011.0 - -
23/11:00am 29.8 23.3 6.5 23 12.5 N 30 39 16 21 1011.3 1011.1 0.0
23/10:30am 29.5 22.0 6.5 23 12.3 N 35 43 19 23 1011.3 1011.1 0.0
23/10:00am 28.0 20.3 7.1 26 11.2 N 37 48 20 26 1011.4 1011.2 0.0
23/09:30am 27.0 19.1 6.3 26 10.9 N 37 46 20 25 1011.4 1011.2 0.0
23/09:00am 26.2 17.9 6.1 27 10.5 N 39 52 21 28 1011.6 1011.4 0.0
23/08:30am 25.3 20.3 6.3 29 9.9 N 22 33 12 18 1011.8 1011.6 0.0
23/08:00am 20.1 19.3 9.7 51 5.6 NNE 4 7 2 4 1012.1 1011.9 0.0
23/07:30am 17.5 16.1 9.5 59 4.2 NNE 7 11 4 6 1012.2 1012.0 0.0
23/07:00am 14.5 13.2 9.9 74 2.4 N 7 11 4 6 1012.1 1011.9 0.0
23/06:30am 14.0 10.7 8.2 68 2.9 N 15 17 8 9 1012.0 1011.8 0.0
23/06:00am 12.8 9.9 8.2 73 2.3 N 13 15 7 8 1011.9 1011.7 0.0
23/05:30am 12.0 10.3 8.4 78 1.8 NNW 7 9 4 5 1011.9 1011.7 0.0
23/05:00am 12.6 10.1 8.4 75 2.1 N 11 13 6 7 1011.6 1011.4 0.0
23/04:30am 13.2 11.5 8.4 72 2.4 NNW 7 9 4 5 1011.7 1011.5 0.0
23/04:00am 13.6 12.5 8.4 71 2.6 NNW 4 9 2 5 1011.8 1011.6 0.0
23/03:30am 13.0 11.5 9.1 77 2.0 NW 7 9 4 5 1011.7 1011.5 0.0
23/03:00am 14.0 12.1 9.1 72 2.5 NNW 9 11 5 6 1012.0 1011.8 0.0
23/02:30am 15.1 14.5 8.9 66 3.2 N 2 7 1 4 1012.1 1011.9 0.0
23/02:00am 15.4 13.9 9.0 65 3.3 NNW 7 7 4 4 1012.3 1012.1 0.0
23/01:30am 17.4 16.7 8.5 56 4.6 NW 2 6 1 3 1012.4 1012.2 0.0
23/01:00am 16.9 14.9 8.6 58 4.3 NW 9 11 5 6 1012.7 1012.5 0.0
23/12:30am 17.1 14.7 8.6 57 4.4 W 11 13 6 7 1012.8 1012.6 0.0
23/12:00am 17.4 14.8 9.2 58 4.3 W 13 17 7 9 1013.0 1012.8 0.0
 
Date/Time
EDT
Temp
°C
App
Temp
°C
Dew
Point
°C
Rel
Hum
%
Delta-T
°C
Wind Press
QNH
hPa
Press
MSL
hPa
Rain since
9am
mm
Dir  Spd
km/h
Gust
km/h
Spd
kts
Gust
kts
22/11:30pm 18.5 15.1 9.0 54 5.0 W 17 19 9 10 1013.0 1012.8 0.0
22/11:00pm 18.4 15.3 8.8 53 5.0 WNW 15 17 8 9 1013.1 1012.9 0.0
22/10:30pm 19.2 17.2 7.0 45 6.2 WNW 7 11 4 6 1013.2 1013.0 0.0
22/10:00pm 22.5 19.8 5.7 33 8.5 ENE 9 11 5 6 1013.2 1013.0 0.0
22/09:30pm 23.5 19.5 6.7 34 8.7 SE 17 20 9 11 1013.1 1012.9 0.0
22/09:00pm 23.5 20.5 7.8 36 8.3 SSE 13 19 7 10 1012.9 1012.7 0.0
22/08:30pm 24.8 20.3 7.1 32 9.3 SSE 20 26 11 14 1012.8 1012.6 0.0
22/08:00pm 26.3 21.9 7.4 30 10.1 S 20 28 11 15 1012.7 1012.5 0.0
22/07:30pm 27.6 21.7 7.3 27 10.9 SSE 28 35 15 19 1012.4 1012.2 0.0
22/07:00pm 28.8 23.4 7.9 27 11.4 SSE 26 35 14 19 1012.4 1012.2 0.0
22/06:30pm 29.6 23.1 6.4 23 12.4 SSE 30 35 16 19 1012.1 1011.9 0.0
22/06:00pm 30.8 22.7 1.2 15 14.6 SSE 33 41 18 22 1012.1 1011.9 0.0
22/05:30pm 31.1 23.3 1.5 15 14.7 SSE 32 41 17 22 1012.1 1011.9 0.0
22/05:00pm 31.2 23.4 2.9 16 14.4 SSE 33 39 18 21 1012.2 1012.0 0.0
22/04:30pm 31.9 24.6 2.6 15 14.9 SE 30 37 16 20 1012.3 1012.1 0.0

Other Formats:

Comma delimited format used in spreadsheet applications
http://www.bom.gov.au/fwo/IDV60801/IDV60801.94866.axf

JavaScript Object Notation format (JSON) in row-major order
http://www.bom.gov.au/fwo/IDV60801/IDV60801.94866.json